createdAt,value
2023-12-20T00:01:08.583Z,5.52
2023-12-20T00:03:41.822Z,5.88
2023-12-20T00:06:09.861Z,5.98
2023-12-20T00:08:36.245Z,5.95
2023-12-20T00:11:02.819Z,5.84
2023-12-20T00:13:30.436Z,5.50
2023-12-20T00:15:58.573Z,5.64
2023-12-20T00:18:24.967Z,5.67
2023-12-20T00:20:51.270Z,5.43
2023-12-20T00:23:17.578Z,5.54
2023-12-20T00:25:43.866Z,5.79
2023-12-20T00:28:10.258Z,5.79
2023-12-20T00:30:36.698Z,6.06
2023-12-20T00:33:03.289Z,5.78
2023-12-20T00:35:29.615Z,5.78
2023-12-20T00:37:56.487Z,5.55
2023-12-20T00:40:22.928Z,5.57
2023-12-20T00:42:49.351Z,5.46
2023-12-20T00:45:15.999Z,5.66
2023-12-20T00:47:42.757Z,5.56
2023-12-20T00:50:10.083Z,5.43
2023-12-20T00:52:36.502Z,5.32
2023-12-20T00:55:03.229Z,5.43
2023-12-20T00:57:29.576Z,5.65
2023-12-20T00:59:55.919Z,5.78
2023-12-20T01:02:22.215Z,5.87
2023-12-20T01:04:48.533Z,5.70
2023-12-20T01:07:15.003Z,5.65
2023-12-20T01:09:41.675Z,5.62
2023-12-20T01:12:08.096Z,5.58
2023-12-20T01:14:34.382Z,5.57
2023-12-20T01:17:00.716Z,6.03
2023-12-20T01:19:27.094Z,6.10
2023-12-20T01:21:53.489Z,5.92
2023-12-20T01:24:19.794Z,5.77
2023-12-20T01:26:46.438Z,5.74
2023-12-20T01:29:12.749Z,5.58
2023-12-20T01:31:39.049Z,5.50
2023-12-20T01:34:05.422Z,5.45
2023-12-20T01:36:31.765Z,5.37
2023-12-20T01:38:58.214Z,5.37
2023-12-20T01:41:24.625Z,5.31
2023-12-20T01:43:52.205Z,5.38
2023-12-20T01:46:20.181Z,6.08
2023-12-20T01:48:46.673Z,5.90
2023-12-20T01:51:14.328Z,5.62
2023-12-20T01:53:42.148Z,5.55
2023-12-20T01:56:09.444Z,5.64
2023-12-20T01:58:39.320Z,5.78
2023-12-20T02:01:05.678Z,5.65
2023-12-20T02:03:32.209Z,5.50
2023-12-20T02:05:58.917Z,5.51
2023-12-20T02:08:25.254Z,5.47
2023-12-20T02:10:51.603Z,5.41
2023-12-20T02:13:17.968Z,5.40
2023-12-20T02:15:44.356Z,5.42
2023-12-20T02:18:10.701Z,5.45
2023-12-20T02:20:37.095Z,5.77
2023-12-20T02:23:03.450Z,5.64
2023-12-20T02:25:29.853Z,5.76
2023-12-20T02:27:56.564Z,5.70
2023-12-20T02:30:23.336Z,6.00
2023-12-20T02:32:51.085Z,5.78
2023-12-20T02:35:17.489Z,5.96
2023-12-20T02:37:44.155Z,5.79
2023-12-20T02:40:10.872Z,5.67
2023-12-20T02:42:37.653Z,5.78
2023-12-20T02:45:04.456Z,5.81
2023-12-20T02:47:30.930Z,5.81
2023-12-20T02:49:57.327Z,5.93
2023-12-20T02:52:25.460Z,6.10
2023-12-20T02:54:51.929Z,5.94
2023-12-20T02:57:18.451Z,6.05
2023-12-20T02:59:44.802Z,5.99
2023-12-20T03:02:11.217Z,6.13
2023-12-20T03:04:37.747Z,6.05
2023-12-20T03:07:04.168Z,6.14
2023-12-20T03:09:32.955Z,6.18
2023-12-20T03:12:05.389Z,5.99
2023-12-20T03:14:31.697Z,6.70
2023-12-20T03:17:00.275Z,6.39
2023-12-20T03:19:26.902Z,6.45
2023-12-20T03:21:53.237Z,6.13
2023-12-20T03:24:19.800Z,6.02
2023-12-20T03:26:46.068Z,6.00
2023-12-20T03:29:12.378Z,6.08
2023-12-20T03:31:38.744Z,6.06
2023-12-20T03:34:05.272Z,6.22
2023-12-20T03:36:31.617Z,6.28
2023-12-20T03:38:58.052Z,6.36
2023-12-20T03:41:24.394Z,6.34
2023-12-20T03:43:50.745Z,6.47
2023-12-20T03:46:17.237Z,6.18
2023-12-20T03:48:43.846Z,6.15
2023-12-20T03:51:10.230Z,6.19
2023-12-20T03:53:36.606Z,6.40
2023-12-20T03:56:02.963Z,6.23
2023-12-20T03:58:29.376Z,6.10
2023-12-20T04:00:56.051Z,6.19
2023-12-20T04:03:22.474Z,6.06
2023-12-20T04:05:48.814Z,6.06
2023-12-20T04:08:15.132Z,5.96
2023-12-20T04:10:41.526Z,6.00
2023-12-20T04:13:07.838Z,5.98
2023-12-20T04:15:34.370Z,5.98
2023-12-20T04:18:00.805Z,6.05
2023-12-20T04:20:27.111Z,6.14
2023-12-20T04:22:53.460Z,6.13
2023-12-20T04:25:19.859Z,6.40
2023-12-20T04:27:46.430Z,6.51
2023-12-20T04:30:13.143Z,6.41
2023-12-20T04:32:39.552Z,6.46
2023-12-20T04:35:06.111Z,6.35
2023-12-20T04:37:32.433Z,6.45
2023-12-20T04:39:58.815Z,6.23
2023-12-20T04:42:25.400Z,6.18
2023-12-20T04:44:51.706Z,6.07
2023-12-20T04:47:18.033Z,6.16
2023-12-20T04:49:44.380Z,5.97
2023-12-20T04:52:10.901Z,6.02
2023-12-20T04:54:37.220Z,5.93
2023-12-20T04:57:03.711Z,5.95
2023-12-20T04:59:30.074Z,6.02
2023-12-20T05:01:56.507Z,6.20
2023-12-20T05:04:23.019Z,6.15
2023-12-20T05:06:49.680Z,6.16
2023-12-20T05:09:18.918Z,6.14
2023-12-20T05:11:45.247Z,6.21
2023-12-20T05:14:11.536Z,6.15
2023-12-20T05:16:37.992Z,6.32
2023-12-20T05:19:04.313Z,6.31
2023-12-20T05:21:30.655Z,6.46
2023-12-20T05:23:56.978Z,6.42
2023-12-20T05:26:23.237Z,6.35
2023-12-20T05:28:50.314Z,6.24
2023-12-20T05:31:16.760Z,6.22
2023-12-20T05:33:43.422Z,6.37
2023-12-20T05:36:10.320Z,6.47
2023-12-20T05:38:36.925Z,6.47
2023-12-20T05:41:03.284Z,6.40
2023-12-20T05:43:29.641Z,6.32
2023-12-20T05:45:55.949Z,6.28
2023-12-20T05:48:22.605Z,6.40
2023-12-20T05:50:49.276Z,6.30
2023-12-20T05:53:15.825Z,6.26
2023-12-20T05:55:42.142Z,6.13
2023-12-20T05:58:08.473Z,6.06
2023-12-20T06:00:34.902Z,6.04
2023-12-20T06:03:01.613Z,5.96
2023-12-20T06:05:27.972Z,5.91
2023-12-20T06:07:54.272Z,5.95
2023-12-20T06:10:20.645Z,6.11
2023-12-20T06:12:47.280Z,5.96
2023-12-20T06:15:13.618Z,5.94
2023-12-20T06:17:40.027Z,5.84
2023-12-20T06:20:08.562Z,5.72
2023-12-20T06:22:35.995Z,5.57
2023-12-20T06:25:03.372Z,5.44
2023-12-20T06:27:29.887Z,5.44
2023-12-20T06:29:56.794Z,5.33
2023-12-20T06:32:23.148Z,5.40
2023-12-20T06:34:49.520Z,5.46
2023-12-20T06:37:15.953Z,5.46
2023-12-20T06:39:42.353Z,5.40
2023-12-20T06:42:09.404Z,5.29
2023-12-20T06:44:35.782Z,5.62
2023-12-20T06:47:02.136Z,5.46
2023-12-20T06:49:28.784Z,5.37
2023-12-20T06:51:55.204Z,5.26
2023-12-20T06:54:21.647Z,5.28
2023-12-20T06:56:48.058Z,5.14
2023-12-20T06:59:14.457Z,5.06
2023-12-20T07:01:40.914Z,5.35
2023-12-20T07:04:07.254Z,5.20
2023-12-20T07:06:33.797Z,5.23
2023-12-20T07:09:00.142Z,5.19
2023-12-20T07:11:26.476Z,5.02
2023-12-20T07:13:52.825Z,5.08
2023-12-20T07:16:19.185Z,5.15
2023-12-20T07:18:45.495Z,5.07
2023-12-20T07:21:11.814Z,5.31
2023-12-20T07:23:38.292Z,5.26
2023-12-20T07:26:04.835Z,5.82
2023-12-20T07:28:31.218Z,5.51
2023-12-20T07:30:57.705Z,5.38
2023-12-20T07:33:24.221Z,5.33
2023-12-20T07:35:50.651Z,5.34
2023-12-20T07:38:17.327Z,5.47
2023-12-20T07:40:46.380Z,5.75
2023-12-20T07:43:12.684Z,5.82
2023-12-20T07:45:39.003Z,5.69
2023-12-20T07:48:06.664Z,5.60
2023-12-20T07:50:33.166Z,5.87
2023-12-20T07:52:59.752Z,6.19
2023-12-20T07:55:26.193Z,6.19
2023-12-20T07:57:52.627Z,6.07
2023-12-20T08:00:19.671Z,6.16
2023-12-20T08:02:46.251Z,6.46
2023-12-20T08:05:12.636Z,6.24
2023-12-20T08:07:39.050Z,6.46
2023-12-20T08:10:06.609Z,6.41
2023-12-20T08:12:32.902Z,6.54
2023-12-20T08:14:59.257Z,6.53
2023-12-20T08:17:25.663Z,6.26
2023-12-20T08:19:52.595Z,5.97
2023-12-20T08:22:19.075Z,6.30
2023-12-20T08:24:45.478Z,6.22
2023-12-20T08:27:11.883Z,6.21
2023-12-20T08:29:38.209Z,6.53
2023-12-20T08:32:05.081Z,6.72
2023-12-20T08:34:31.575Z,6.92
2023-12-20T08:36:58.328Z,6.89
2023-12-20T08:39:24.904Z,6.92
2023-12-20T08:41:51.220Z,6.68
2023-12-20T08:44:17.683Z,6.91
2023-12-20T08:46:44.371Z,6.96
2023-12-20T08:49:10.861Z,6.91
2023-12-20T08:51:37.372Z,7.07
2023-12-20T08:54:03.828Z,6.92
2023-12-20T08:56:30.146Z,6.68
2023-12-20T08:58:56.533Z,6.94
2023-12-20T09:01:23.035Z,7.13
2023-12-20T09:03:49.519Z,7.09
2023-12-20T09:06:16.826Z,7.00
2023-12-20T09:08:43.266Z,6.98
2023-12-20T09:11:09.638Z,6.96
2023-12-20T09:13:36.371Z,6.51
2023-12-20T09:16:04.045Z,6.94
2023-12-20T09:18:30.392Z,6.94
2023-12-20T09:20:56.802Z,6.94
2023-12-20T09:23:23.178Z,6.72
2023-12-20T09:25:49.550Z,6.88
2023-12-20T09:28:15.932Z,7.25
2023-12-20T09:30:43.067Z,7.40
2023-12-20T09:33:10.347Z,7.16
2023-12-20T09:35:36.996Z,7.38
2023-12-20T09:38:03.514Z,7.20
2023-12-20T09:40:30.265Z,7.08
2023-12-20T09:43:05.038Z,7.31
2023-12-20T09:45:32.729Z,7.25
2023-12-20T09:47:59.886Z,7.03
2023-12-20T09:50:26.829Z,7.37
2023-12-20T09:52:56.202Z,7.63
2023-12-20T09:55:23.228Z,7.32
2023-12-20T09:57:50.730Z,7.36
2023-12-20T10:00:18.217Z,7.33
2023-12-20T10:02:55.880Z,7.56
2023-12-20T10:05:28.049Z,7.61
2023-12-20T10:07:54.615Z,7.76
2023-12-20T10:10:21.071Z,7.67
2023-12-20T10:13:11.611Z,7.50
2023-12-20T10:15:39.015Z,7.47
2023-12-20T10:18:06.444Z,7.41
2023-12-20T10:20:33.614Z,7.45
2023-12-20T10:23:02.072Z,7.39
2023-12-20T10:25:29.459Z,7.51
2023-12-20T10:28:17.564Z,7.67
2023-12-20T10:30:45.036Z,7.63
2023-12-20T10:33:12.453Z,7.49
2023-12-20T10:35:43.553Z,7.79
2023-12-20T10:38:13.430Z,7.61
2023-12-20T10:40:40.046Z,7.66
2023-12-20T10:43:07.109Z,7.91
2023-12-20T10:45:35.347Z,7.74
2023-12-20T10:48:03.675Z,7.82
2023-12-20T10:50:31.370Z,7.69
2023-12-20T10:52:58.890Z,8.02
2023-12-20T10:55:26.032Z,7.69
2023-12-20T10:57:53.548Z,7.50
2023-12-20T11:00:21.869Z,7.59
2023-12-20T11:02:51.408Z,7.31
2023-12-20T11:05:37.098Z,7.89
2023-12-20T11:08:10.187Z,7.79
2023-12-20T11:10:49.502Z,7.88
2023-12-20T11:13:24.712Z,7.69
2023-12-20T11:15:51.222Z,7.76
2023-12-20T11:18:17.764Z,7.89
2023-12-20T11:20:44.101Z,8.09
2023-12-20T11:23:10.646Z,7.97
2023-12-20T11:25:50.009Z,8.09
2023-12-20T11:28:16.692Z,7.91
2023-12-20T11:30:47.226Z,7.75
2023-12-20T11:33:16.935Z,8.16
2023-12-20T11:35:46.177Z,7.56
2023-12-20T11:38:14.943Z,7.74
2023-12-20T11:40:43.090Z,7.69
2023-12-20T11:43:09.740Z,7.91
2023-12-20T11:45:36.258Z,7.97
2023-12-20T11:48:03.465Z,8.09
2023-12-20T11:50:30.728Z,7.90
2023-12-20T11:52:57.454Z,8.11
2023-12-20T11:55:24.545Z,7.99
2023-12-20T11:57:51.867Z,8.10
2023-12-20T12:00:19.197Z,7.89
2023-12-20T12:02:56.515Z,7.77
2023-12-20T12:05:22.931Z,8.01
2023-12-20T12:07:49.516Z,8.16
2023-12-20T12:10:16.260Z,8.46
2023-12-20T12:12:42.926Z,8.12
2023-12-20T12:15:09.431Z,8.29
2023-12-20T12:17:37.310Z,8.24
2023-12-20T12:20:05.911Z,8.07
2023-12-20T12:22:32.519Z,8.26
2023-12-20T12:25:00.830Z,8.30
2023-12-20T12:27:28.420Z,8.17
2023-12-20T12:30:03.380Z,8.19
2023-12-20T12:32:29.944Z,8.30
2023-12-20T12:34:56.580Z,8.23
2023-12-20T12:37:23.817Z,8.17
2023-12-20T12:39:50.265Z,8.20
2023-12-20T12:42:16.624Z,8.02
2023-12-20T12:44:42.965Z,8.12
2023-12-20T12:47:09.448Z,8.36
2023-12-20T12:49:35.854Z,8.35
2023-12-20T12:52:02.212Z,8.22
2023-12-20T12:54:29.090Z,8.06
2023-12-20T12:56:55.407Z,8.03
2023-12-20T12:59:21.740Z,8.11
2023-12-20T13:01:48.310Z,7.84
2023-12-20T13:04:14.748Z,8.16
2023-12-20T13:06:41.336Z,8.11
2023-12-20T13:09:07.718Z,7.94
2023-12-20T13:11:35.528Z,8.03
2023-12-20T13:14:02.299Z,8.04
2023-12-20T13:16:28.675Z,7.69
2023-12-20T13:18:55.320Z,7.99
2023-12-20T13:21:21.712Z,8.15
2023-12-20T13:23:48.014Z,8.07
2023-12-20T13:26:14.393Z,8.12
2023-12-20T13:28:40.740Z,8.28
2023-12-20T13:31:07.329Z,8.23
2023-12-20T13:33:33.791Z,8.10
2023-12-20T13:36:00.245Z,8.00
2023-12-20T13:38:26.861Z,8.10
2023-12-20T13:40:53.179Z,8.01
2023-12-20T13:43:19.536Z,7.96
2023-12-20T13:45:45.911Z,7.90
2023-12-20T13:48:12.274Z,8.34
2023-12-20T13:50:38.773Z,8.05
2023-12-20T13:53:05.139Z,8.32
2023-12-20T13:55:31.522Z,8.12
2023-12-20T13:57:58.310Z,8.23
2023-12-20T14:00:24.976Z,8.11
2023-12-20T14:02:51.413Z,8.14
2023-12-20T14:05:18.565Z,7.63
2023-12-20T14:07:45.804Z,7.97
2023-12-20T14:10:13.614Z,8.15
2023-12-20T14:12:40.801Z,8.26
2023-12-20T14:15:08.093Z,8.05
2023-12-20T14:17:34.455Z,8.09
2023-12-20T14:20:01.125Z,8.00
2023-12-20T14:22:27.825Z,8.11
2023-12-20T14:24:54.315Z,8.08
2023-12-20T14:27:20.622Z,8.00
2023-12-20T14:29:47.121Z,8.10
2023-12-20T14:32:13.620Z,8.12
2023-12-20T14:34:39.941Z,8.16
2023-12-20T14:37:06.334Z,7.77
2023-12-20T14:39:32.709Z,7.74
2023-12-20T14:41:59.211Z,8.02
2023-12-20T14:44:25.559Z,7.99
2023-12-20T14:46:52.073Z,8.07
2023-12-20T14:49:18.443Z,7.95
2023-12-20T14:51:45.702Z,7.69
2023-12-20T14:54:12.236Z,7.69
2023-12-20T14:56:38.571Z,7.80
2023-12-20T14:59:04.903Z,7.82
2023-12-20T15:01:32.387Z,8.15
2023-12-20T15:03:58.862Z,8.20
2023-12-20T15:06:25.218Z,8.02
2023-12-20T15:08:52.191Z,7.99
2023-12-20T15:11:18.527Z,8.11
2023-12-20T15:13:44.835Z,7.93
2023-12-20T15:16:11.176Z,7.89
2023-12-20T15:18:37.587Z,7.98
2023-12-20T15:21:04.168Z,7.96
2023-12-20T15:23:31.193Z,7.83
2023-12-20T15:25:57.668Z,7.57
2023-12-20T15:28:23.970Z,7.45
2023-12-20T15:30:50.388Z,7.51
2023-12-20T15:33:17.025Z,7.44
2023-12-20T15:35:43.453Z,7.66
2023-12-20T15:38:09.859Z,7.69
2023-12-20T15:40:36.276Z,7.36
2023-12-20T15:43:02.707Z,7.35
2023-12-20T15:45:29.249Z,7.61
2023-12-20T15:47:55.807Z,7.70
2023-12-20T15:53:12.211Z,7.14
2023-12-20T15:55:38.766Z,7.22
2023-12-20T15:58:06.489Z,7.44
2023-12-20T16:00:33.074Z,7.55
2023-12-20T16:02:59.618Z,7.80
2023-12-20T16:05:26.015Z,7.55
2023-12-20T16:07:52.819Z,7.27
2023-12-20T16:10:19.454Z,7.10
2023-12-20T16:12:45.825Z,7.29
2023-12-20T16:15:12.176Z,7.53
2023-12-20T16:17:40.150Z,7.54
2023-12-20T16:20:07.371Z,7.65
2023-12-20T16:22:33.767Z,7.63
2023-12-20T16:25:00.159Z,7.77
2023-12-20T16:27:26.515Z,7.81
2023-12-20T16:29:52.841Z,7.78
2023-12-20T16:32:19.123Z,7.90
2023-12-20T16:34:45.468Z,7.73
2023-12-20T16:37:12.149Z,8.01
2023-12-20T16:39:38.443Z,7.82
2023-12-20T16:42:05.233Z,7.72
2023-12-20T16:44:31.505Z,7.74
2023-12-20T16:46:57.786Z,8.03
2023-12-20T16:49:24.241Z,7.83
2023-12-20T16:51:50.634Z,7.83
2023-12-20T16:54:17.017Z,7.80
2023-12-20T16:56:43.302Z,7.46
2023-12-20T16:59:09.602Z,7.46
2023-12-20T17:04:20.019Z,7.55
2023-12-20T17:06:46.360Z,7.48
2023-12-20T17:09:12.702Z,7.51
2023-12-20T17:11:39.053Z,7.50
2023-12-20T17:14:05.356Z,7.69
2023-12-20T17:16:31.814Z,7.59
2023-12-20T17:18:58.203Z,7.23
2023-12-20T17:21:24.610Z,7.47
2023-12-20T17:23:50.958Z,7.29
2023-12-20T17:26:17.320Z,7.75
2023-12-20T17:28:43.756Z,7.73
2023-12-20T17:31:10.252Z,7.62
2023-12-20T17:33:38.287Z,7.69
2023-12-20T17:36:05.303Z,7.66
2023-12-20T17:38:31.700Z,7.46
2023-12-20T17:40:58.082Z,7.42
2023-12-20T17:43:24.469Z,7.59
2023-12-20T17:45:51.002Z,7.55
2023-12-20T17:48:17.546Z,7.48
2023-12-20T17:50:44.266Z,7.47
2023-12-20T17:53:10.634Z,7.50
2023-12-20T17:55:37.047Z,7.61
2023-12-20T17:58:03.591Z,7.46
2023-12-20T18:00:33.815Z,7.29
2023-12-20T18:03:00.535Z,7.05
2023-12-20T18:05:27.027Z,7.35
2023-12-20T18:07:53.385Z,7.46
2023-12-20T18:10:20.473Z,7.70
2023-12-20T18:12:47.861Z,7.62
2023-12-20T18:15:15.020Z,7.60
2023-12-20T18:17:44.769Z,7.73
2023-12-20T18:20:11.807Z,7.75
2023-12-20T18:22:38.281Z,7.65
2023-12-20T18:25:07.105Z,7.73
2023-12-20T18:27:33.792Z,7.60
2023-12-20T18:30:08.495Z,7.67
2023-12-20T18:32:39.215Z,7.64
2023-12-20T18:35:05.956Z,7.92
2023-12-20T18:37:32.351Z,7.82
2023-12-20T18:39:58.756Z,7.74
2023-12-20T18:42:25.106Z,7.62
2023-12-20T18:44:51.447Z,7.39
2023-12-20T18:47:17.731Z,7.35
2023-12-20T18:49:44.176Z,7.22
2023-12-20T18:52:10.582Z,7.13
2023-12-20T18:54:36.994Z,7.11
2023-12-20T18:57:03.484Z,7.38
2023-12-20T18:59:29.817Z,7.36
2023-12-20T19:01:56.210Z,7.43
2023-12-20T19:04:22.881Z,7.45
2023-12-20T19:06:49.259Z,7.44
2023-12-20T19:09:15.588Z,7.11
2023-12-20T19:11:41.896Z,7.08
2023-12-20T19:14:08.345Z,7.12
2023-12-20T19:16:34.851Z,7.18
2023-12-20T19:19:02.712Z,7.10
2023-12-20T19:21:29.184Z,7.12
2023-12-20T19:23:55.550Z,7.01
2023-12-20T19:26:22.175Z,7.28
2023-12-20T19:28:48.563Z,7.30
2023-12-20T19:31:15.164Z,7.20
2023-12-20T19:33:42.756Z,7.08
2023-12-20T19:36:13.657Z,7.06
2023-12-20T19:38:41.443Z,7.02
2023-12-20T19:41:08.026Z,7.04
2023-12-20T19:43:34.446Z,6.84
2023-12-20T19:46:00.808Z,6.80
2023-12-20T19:48:27.196Z,7.18
2023-12-20T19:50:56.096Z,7.13
2023-12-20T19:53:22.797Z,7.40
2023-12-20T19:55:49.150Z,7.45
2023-12-20T19:58:15.788Z,7.46
2023-12-20T20:00:50.364Z,7.49
2023-12-20T20:03:21.617Z,7.47
2023-12-20T20:05:48.240Z,7.35
2023-12-20T20:08:14.617Z,7.28
2023-12-20T20:10:40.942Z,7.39
2023-12-20T20:13:07.294Z,7.52
2023-12-20T20:15:33.624Z,7.61
2023-12-20T20:18:02.273Z,7.43
2023-12-20T20:20:28.610Z,7.51
2023-12-20T20:22:54.930Z,7.67
2023-12-20T20:25:21.295Z,7.57
2023-12-20T20:27:47.920Z,7.53
2023-12-20T20:30:14.458Z,7.51
2023-12-20T20:32:40.919Z,7.61
2023-12-20T20:35:08.229Z,7.69
2023-12-20T20:37:34.835Z,7.52
2023-12-20T20:40:01.475Z,7.52
2023-12-20T20:42:28.208Z,7.61
2023-12-20T20:44:54.757Z,7.57
2023-12-20T20:47:21.139Z,7.48
2023-12-20T20:49:47.648Z,7.41
2023-12-20T20:52:14.148Z,7.43
2023-12-20T20:54:40.476Z,7.44
2023-12-20T20:57:07.037Z,7.85
2023-12-20T20:59:33.365Z,7.73
2023-12-20T21:02:00.264Z,7.69
2023-12-20T21:04:26.934Z,7.57
2023-12-20T21:06:53.408Z,7.75
2023-12-20T21:09:19.757Z,7.60
2023-12-20T21:11:46.050Z,7.66
2023-12-20T21:14:12.622Z,7.63
2023-12-20T21:16:38.978Z,7.56
2023-12-20T21:19:07.449Z,7.46
2023-12-20T21:21:34.254Z,7.43
2023-12-20T21:24:00.582Z,7.36
2023-12-20T21:26:26.903Z,7.62
2023-12-20T21:28:55.364Z,7.45
2023-12-20T21:31:21.877Z,7.59
2023-12-20T21:33:49.655Z,7.47
2023-12-20T21:36:17.568Z,7.54
2023-12-20T21:38:44.378Z,7.34
2023-12-20T21:41:13.988Z,7.55
2023-12-20T21:43:42.459Z,7.70
2023-12-20T21:46:09.111Z,7.61
2023-12-20T21:48:35.470Z,7.54
2023-12-20T21:51:01.786Z,7.71
2023-12-20T21:53:28.271Z,7.81
2023-12-20T21:55:54.579Z,7.77
2023-12-20T21:58:20.913Z,7.92
2023-12-20T22:00:47.300Z,7.47
2023-12-20T22:03:13.644Z,7.82
2023-12-20T22:05:40.163Z,7.61
2023-12-20T22:08:07.578Z,8.00
2023-12-20T22:10:34.045Z,8.05
2023-12-20T22:13:00.463Z,8.03
2023-12-20T22:15:26.870Z,8.05
2023-12-20T22:17:53.227Z,7.95
2023-12-20T22:20:19.687Z,7.63
2023-12-20T22:22:47.014Z,7.96
2023-12-20T22:25:13.972Z,7.98
2023-12-20T22:27:40.495Z,7.79
2023-12-20T22:30:07.364Z,7.82
2023-12-20T22:32:33.822Z,7.80
2023-12-20T22:35:00.257Z,7.71
2023-12-20T22:37:27.097Z,7.65
2023-12-20T22:39:53.517Z,7.64
2023-12-20T22:42:19.836Z,7.55
2023-12-20T22:44:46.156Z,7.43
2023-12-20T22:47:12.434Z,7.43
2023-12-20T22:49:38.779Z,7.31
2023-12-20T22:52:05.522Z,7.38
2023-12-20T22:54:31.853Z,7.34
2023-12-20T22:56:58.324Z,7.36
2023-12-20T22:59:24.821Z,7.39
2023-12-20T23:01:51.239Z,7.42
2023-12-20T23:04:17.775Z,7.30
2023-12-20T23:06:44.262Z,7.31
2023-12-20T23:09:10.634Z,7.25
2023-12-20T23:11:36.941Z,7.30
2023-12-20T23:14:10.076Z,7.28
2023-12-20T23:16:41.051Z,7.29
2023-12-20T23:19:07.873Z,7.31
2023-12-20T23:21:34.270Z,7.31
2023-12-20T23:24:00.668Z,7.47
2023-12-20T23:26:26.976Z,7.24
2023-12-20T23:28:53.294Z,7.55
2023-12-20T23:31:24.201Z,7.56
2023-12-20T23:33:51.523Z,7.33
2023-12-20T23:36:18.370Z,7.60
2023-12-20T23:38:46.007Z,7.38
2023-12-20T23:41:12.554Z,7.34
2023-12-20T23:43:38.939Z,7.21
2023-12-20T23:46:05.294Z,7.49
2023-12-20T23:48:31.964Z,7.81
2023-12-20T23:50:58.282Z,7.69
2023-12-20T23:53:24.750Z,7.66
2023-12-20T23:55:51.046Z,7.73
2023-12-20T23:58:17.713Z,7.36
